Terminal Aerodrome Forecast
Issued by NWS

Home | Current Version | Previous Version | Text Only | Print | Product List | Glossary On
Versions: 1 2 3 4 5 6 7 8 9 10 11 12 13 14 15 16 17 18 19 20
000
FTUS43 KILX 291133
TAFCMI
TAF
KCMI 291133Z 2912/3012 15006KT 6SM BR FEW080
     FM291600 18012KT P6SM VCTS BKN050CB
     FM291900 19012G17KT P6SM BKN035
     FM300000 20012KT P6SM VCTS BKN045CB
     FM300300 20007KT 6SM -SHRA VCTS OVC040CB
     FM300800 21008KT P6SM VCSH OVC035=

USA.gov is the U.S. government's official web portal to all federal, state and local government web resources and services.